sensor_id;sensor_type;location;lat;lon;timestamp;temperature;humidity
48898;DHT22;34713;50.038;20.000;2022-11-20T00:01:15;0.84;63.42
48898;DHT22;34713;50.038;20.000;2022-11-20T00:03:42;0.83;63.44
48898;DHT22;34713;50.038;20.000;2022-11-20T00:06:11;0.83;63.43
48898;DHT22;34713;50.038;20.000;2022-11-20T00:08:38;0.78;63.39
48898;DHT22;34713;50.038;20.000;2022-11-20T00:11:19;0.77;63.36
48898;DHT22;34713;50.038;20.000;2022-11-20T00:13:48;0.75;63.31
48898;DHT22;34713;50.038;20.000;2022-11-20T00:16:20;0.74;63.26
48898;DHT22;34713;50.038;20.000;2022-11-20T00:18:43;0.73;63.21
48898;DHT22;34713;50.038;20.000;2022-11-20T00:21:14;0.68;63.15
48898;DHT22;34713;50.038;20.000;2022-11-20T00:23:41;0.68;63.11
48898;DHT22;34713;50.038;20.000;2022-11-20T00:26:11;0.70;63.13
48898;DHT22;34713;50.038;20.000;2022-11-20T00:28:38;0.65;63.16
48898;DHT22;34713;50.038;20.000;2022-11-20T00:31:15;0.65;63.14
48898;DHT22;34713;50.038;20.000;2022-11-20T00:33:42;0.63;63.13
48898;DHT22;34713;50.038;20.000;2022-11-20T00:36:15;0.63;63.11
48898;DHT22;34713;50.038;20.000;2022-11-20T00:38:41;0.61;63.09
48898;DHT22;34713;50.038;20.000;2022-11-20T00:41:10;0.60;63.09
48898;DHT22;34713;50.038;20.000;2022-11-20T00:43:37;0.59;63.06
48898;DHT22;34713;50.038;20.000;2022-11-20T00:46:13;0.57;62.98
48898;DHT22;34713;50.038;20.000;2022-11-20T00:48:39;0.54;62.97
48898;DHT22;34713;50.038;20.000;2022-11-20T00:51:05;0.53;62.95
48898;DHT22;34713;50.038;20.000;2022-11-20T00:53:31;0.52;62.94
48898;DHT22;34713;50.038;20.000;2022-11-20T00:56:03;0.53;62.97
48898;DHT22;34713;50.038;20.000;2022-11-20T00:58:32;0.50;63.03
48898;DHT22;34713;50.038;20.000;2022-11-20T01:01:09;0.49;63.05
48898;DHT22;34713;50.038;20.000;2022-11-20T01:03:34;0.52;63.12
48898;DHT22;34713;50.038;20.000;2022-11-20T01:06:06;0.52;63.14
48898;DHT22;34713;50.038;20.000;2022-11-20T01:08:34;0.54;63.14
48898;DHT22;34713;50.038;20.000;2022-11-20T01:11:09;0.57;63.14
48898;DHT22;34713;50.038;20.000;2022-11-20T01:13:36;0.56;63.14
48898;DHT22;34713;50.038;20.000;2022-11-20T01:18:46;0.54;63.17
48898;DHT22;34713;50.038;20.000;2022-11-20T01:21:22;0.50;63.16
48898;DHT22;34713;50.038;20.000;2022-11-20T01:23:49;0.52;63.19
48898;DHT22;34713;50.038;20.000;2022-11-20T01:26:22;0.52;63.16
48898;DHT22;34713;50.038;20.000;2022-11-20T01:28:48;0.52;63.13
48898;DHT22;34713;50.038;20.000;2022-11-20T01:31:25;0.52;63.14
48898;DHT22;34713;50.038;20.000;2022-11-20T01:33:51;0.53;63.14
48898;DHT22;34713;50.038;20.000;2022-11-20T01:36:20;0.53;63.09
48898;DHT22;34713;50.038;20.000;2022-11-20T01:38:46;0.50;63.05
48898;DHT22;34713;50.038;20.000;2022-11-20T01:41:14;0.50;63.03
48898;DHT22;34713;50.038;20.000;2022-11-20T01:43:42;0.49;63.03
48898;DHT22;34713;50.038;20.000;2022-11-20T01:46:17;0.44;62.93
48898;DHT22;34713;50.038;20.000;2022-11-20T01:51:35;0.39;62.97
48898;DHT22;34713;50.038;20.000;2022-11-20T01:54:05;0.39;62.96
48898;DHT22;34713;50.038;20.000;2022-11-20T01:56:35;0.40;62.97
48898;DHT22;34713;50.038;20.000;2022-11-20T01:59:03;0.36;62.98
48898;DHT22;34713;50.038;20.000;2022-11-20T02:01:29;0.29;62.96
48898;DHT22;34713;50.038;20.000;2022-11-20T02:03:56;0.23;63.07
48898;DHT22;34713;50.038;20.000;2022-11-20T02:09:07;0.19;63.08
48898;DHT22;34713;50.038;20.000;2022-11-20T02:11:33;0.19;63.08
48898;DHT22;34713;50.038;20.000;2022-11-20T02:13:59;0.15;63.06
48898;DHT22;34713;50.038;20.000;2022-11-20T02:16:29;0.13;63.09
48898;DHT22;34713;50.038;20.000;2022-11-20T02:18:58;0.09;63.08
48898;DHT22;34713;50.038;20.000;2022-11-20T02:24:18;-0.01;63.18
48898;DHT22;34713;50.038;20.000;2022-11-20T02:27:00;-0.04;63.19
48898;DHT22;34713;50.038;20.000;2022-11-20T02:32:22;-0.12;63.35
48898;DHT22;34713;50.038;20.000;2022-11-20T02:34:49;-0.14;63.39
48898;DHT22;34713;50.038;20.000;2022-11-20T02:37:15;-0.21;63.38
48898;DHT22;34713;50.038;20.000;2022-11-20T02:39:42;-0.21;63.43
48898;DHT22;34713;50.038;20.000;2022-11-20T02:42:09;-0.25;63.50
48898;DHT22;34713;50.038;20.000;2022-11-20T02:44:34;-0.25;63.59
48898;DHT22;34713;50.038;20.000;2022-11-20T02:47:00;-0.19;63.94
48898;DHT22;34713;50.038;20.000;2022-11-20T02:49:26;-0.22;63.60
48898;DHT22;34713;50.038;20.000;2022-11-20T02:51:52;-0.25;63.48
48898;DHT22;34713;50.038;20.000;2022-11-20T02:54:17;-0.30;63.43
48898;DHT22;34713;50.038;20.000;2022-11-20T02:56:43;-0.33;63.47
48898;DHT22;34713;50.038;20.000;2022-11-20T02:59:09;-0.35;63.54
48898;DHT22;34713;50.038;20.000;2022-11-20T03:01:35;-0.33;63.55
48898;DHT22;34713;50.038;20.000;2022-11-20T03:04:01;-0.33;63.52
48898;DHT22;34713;50.038;20.000;2022-11-20T03:06:27;-0.33;63.54
48898;DHT22;34713;50.038;20.000;2022-11-20T03:08:53;-0.30;63.56
48898;DHT22;34713;50.038;20.000;2022-11-20T03:11:19;-0.33;63.49
48898;DHT22;34713;50.038;20.000;2022-11-20T03:13:45;-0.36;63.43
48898;DHT22;34713;50.038;20.000;2022-11-20T03:16:14;-0.42;63.33
48898;DHT22;34713;50.038;20.000;2022-11-20T03:18:42;-0.49;63.27
48898;DHT22;34713;50.038;20.000;2022-11-20T03:21:09;-0.53;63.30
48898;DHT22;34713;50.038;20.000;2022-11-20T03:23:36;-0.57;63.32
48898;DHT22;34713;50.038;20.000;2022-11-20T03:26:18;-0.58;63.33
48898;DHT22;34713;50.038;20.000;2022-11-20T03:28:56;-0.63;63.35
48898;DHT22;34713;50.038;20.000;2022-11-20T03:31:26;-0.68;63.42
48898;DHT22;34713;50.038;20.000;2022-11-20T03:33:52;-0.70;63.43
48898;DHT22;34713;50.038;20.000;2022-11-20T03:36:20;-0.71;63.47
48898;DHT22;34713;50.038;20.000;2022-11-20T03:38:47;-0.75;63.48
48898;DHT22;34713;50.038;20.000;2022-11-20T03:41:23;-0.80;63.61
48898;DHT22;34713;50.038;20.000;2022-11-20T03:43:51;-0.85;63.69
48898;DHT22;34713;50.038;20.000;2022-11-20T03:46:17;-0.85;63.73
48898;DHT22;34713;50.038;20.000;2022-11-20T03:48:43;-0.88;63.80
48898;DHT22;34713;50.038;20.000;2022-11-20T03:51:16;-0.86;63.87
48898;DHT22;34713;50.038;20.000;2022-11-20T03:53:45;-0.84;63.92
48898;DHT22;34713;50.038;20.000;2022-11-20T03:56:14;-0.84;63.88
48898;DHT22;34713;50.038;20.000;2022-11-20T03:58:42;-0.81;63.94
48898;DHT22;34713;50.038;20.000;2022-11-20T04:01:11;-0.81;63.97
48898;DHT22;34713;50.038;20.000;2022-11-20T04:03:39;-0.81;64.03
48898;DHT22;34713;50.038;20.000;2022-11-20T04:06:12;-0.84;64.10
48898;DHT22;34713;50.038;20.000;2022-11-20T04:08:38;-0.84;64.21
48898;DHT22;34713;50.038;20.000;2022-11-20T04:11:11;-0.84;64.29
48898;DHT22;34713;50.038;20.000;2022-11-20T04:13:37;-0.82;64.32
48898;DHT22;34713;50.038;20.000;2022-11-20T04:16:05;-0.82;64.36
48898;DHT22;34713;50.038;20.000;2022-11-20T04:18:31;-0.78;64.47
48898;DHT22;34713;50.038;20.000;2022-11-20T04:20:58;-0.75;64.52
48898;DHT22;34713;50.038;20.000;2022-11-20T04:23:25;-0.74;64.58
48898;DHT22;34713;50.038;20.000;2022-11-20T04:25:51;-0.70;64.68
48898;DHT22;34713;50.038;20.000;2022-11-20T04:28:17;-0.73;64.64
48898;DHT22;34713;50.038;20.000;2022-11-20T04:30:43;-0.68;64.68
48898;DHT22;34713;50.038;20.000;2022-11-20T04:33:08;-0.70;64.70
48898;DHT22;34713;50.038;20.000;2022-11-20T04:35:35;-0.71;64.79
48898;DHT22;34713;50.038;20.000;2022-11-20T04:38:01;-0.70;64.75
48898;DHT22;34713;50.038;20.000;2022-11-20T04:40:28;-0.70;64.75
48898;DHT22;34713;50.038;20.000;2022-11-20T04:42:55;-0.71;64.75
48898;DHT22;34713;50.038;20.000;2022-11-20T04:45:22;-0.71;64.85
48898;DHT22;34713;50.038;20.000;2022-11-20T04:47:49;-0.70;64.86
48898;DHT22;34713;50.038;20.000;2022-11-20T04:50:15;-0.70;64.86
48898;DHT22;34713;50.038;20.000;2022-11-20T04:52:41;-0.70;64.88
48898;DHT22;34713;50.038;20.000;2022-11-20T04:55:07;-0.73;64.89
48898;DHT22;34713;50.038;20.000;2022-11-20T04:57:33;-0.74;64.97
48898;DHT22;34713;50.038;20.000;2022-11-20T04:59:59;-0.73;64.97
48898;DHT22;34713;50.038;20.000;2022-11-20T05:02:24;-0.73;65.07
48898;DHT22;34713;50.038;20.000;2022-11-20T05:04:50;-0.70;65.16
48898;DHT22;34713;50.038;20.000;2022-11-20T05:07:16;-0.68;65.25
48898;DHT22;34713;50.038;20.000;2022-11-20T05:09:42;-0.70;65.24
48898;DHT22;34713;50.038;20.000;2022-11-20T05:12:08;-0.67;65.29
48898;DHT22;34713;50.038;20.000;2022-11-20T05:14:35;-0.68;65.32
48898;DHT22;34713;50.038;20.000;2022-11-20T05:17:00;-0.65;65.37
48898;DHT22;34713;50.038;20.000;2022-11-20T05:19:26;-0.63;65.34
48898;DHT22;34713;50.038;20.000;2022-11-20T05:21:52;-0.58;65.36
48898;DHT22;34713;50.038;20.000;2022-11-20T05:24:17;-0.60;65.30
48898;DHT22;34713;50.038;20.000;2022-11-20T05:26:43;-0.63;65.32
48898;DHT22;34713;50.038;20.000;2022-11-20T05:29:12;-0.60;65.51
48898;DHT22;34713;50.038;20.000;2022-11-20T05:31:40;-0.64;65.40
48898;DHT22;34713;50.038;20.000;2022-11-20T05:34:06;-0.64;65.47
48898;DHT22;34713;50.038;20.000;2022-11-20T05:36:33;-0.65;65.60
48898;DHT22;34713;50.038;20.000;2022-11-20T05:38:59;-0.67;65.65
48898;DHT22;34713;50.038;20.000;2022-11-20T05:41:25;-0.67;65.66
48898;DHT22;34713;50.038;20.000;2022-11-20T05:43:51;-0.64;65.75
48898;DHT22;34713;50.038;20.000;2022-11-20T05:46:20;-0.64;65.83
48898;DHT22;34713;50.038;20.000;2022-11-20T05:48:46;-0.60;65.91
48898;DHT22;34713;50.038;20.000;2022-11-20T05:51:16;-0.61;65.84
48898;DHT22;34713;50.038;20.000;2022-11-20T05:53:43;-0.60;65.89
48898;DHT22;34713;50.038;20.000;2022-11-20T05:56:12;-0.61;65.88
48898;DHT22;34713;50.038;20.000;2022-11-20T05:58:39;-0.57;65.81
48898;DHT22;34713;50.038;20.000;2022-11-20T06:01:19;-0.57;65.82
48898;DHT22;34713;50.038;20.000;2022-11-20T06:03:46;-0.56;65.74
48898;DHT22;34713;50.038;20.000;2022-11-20T06:06:14;-0.53;65.70
48898;DHT22;34713;50.038;20.000;2022-11-20T06:08:41;-0.56;65.66
48898;DHT22;34713;50.038;20.000;2022-11-20T06:11:09;-0.54;65.74
48898;DHT22;34713;50.038;20.000;2022-11-20T06:13:36;-0.56;65.59
48898;DHT22;34713;50.038;20.000;2022-11-20T06:16:02;-0.54;65.55
48898;DHT22;34713;50.038;20.000;2022-11-20T06:18:29;-0.53;65.54
48898;DHT22;34713;50.038;20.000;2022-11-20T06:21:10;-0.50;65.51
48898;DHT22;34713;50.038;20.000;2022-11-20T06:23:37;-0.54;65.44
48898;DHT22;34713;50.038;20.000;2022-11-20T06:26:07;-0.53;65.39
48898;DHT22;34713;50.038;20.000;2022-11-20T06:28:34;-0.51;65.38
48898;DHT22;34713;50.038;20.000;2022-11-20T06:31:00;-0.53;65.34
48898;DHT22;34713;50.038;20.000;2022-11-20T06:33:26;-0.54;65.31
48898;DHT22;34713;50.038;20.000;2022-11-20T06:35:58;-0.57;65.30
48898;DHT22;34713;50.038;20.000;2022-11-20T06:38:26;-0.60;65.34
48898;DHT22;34713;50.038;20.000;2022-11-20T06:40:52;-0.61;65.40
48898;DHT22;34713;50.038;20.000;2022-11-20T06:43:18;-0.68;65.50
48898;DHT22;34713;50.038;20.000;2022-11-20T06:45:43;-0.64;65.54
48898;DHT22;34713;50.038;20.000;2022-11-20T06:48:09;-0.67;65.51
48898;DHT22;34713;50.038;20.000;2022-11-20T06:50:38;-0.67;65.54
48898;DHT22;34713;50.038;20.000;2022-11-20T06:53:04;-0.64;65.54
48898;DHT22;34713;50.038;20.000;2022-11-20T06:55:31;-0.60;65.57
48898;DHT22;34713;50.038;20.000;2022-11-20T06:57:57;-0.57;65.55
48898;DHT22;34713;50.038;20.000;2022-11-20T07:00:24;-0.56;65.44
48898;DHT22;34713;50.038;20.000;2022-11-20T07:02:50;-0.51;65.46
48898;DHT22;34713;50.038;20.000;2022-11-20T07:05:17;-0.51;65.49
48898;DHT22;34713;50.038;20.000;2022-11-20T07:07:43;-0.50;65.53
48898;DHT22;34713;50.038;20.000;2022-11-20T07:10:09;-0.46;65.54
48898;DHT22;34713;50.038;20.000;2022-11-20T07:12:35;-0.44;65.51
48898;DHT22;34713;50.038;20.000;2022-11-20T07:15:01;-0.47;65.50
48898;DHT22;34713;50.038;20.000;2022-11-20T07:17:27;-0.44;65.63
48898;DHT22;34713;50.038;20.000;2022-11-20T07:19:52;-0.44;65.61
48898;DHT22;34713;50.038;20.000;2022-11-20T07:22:18;-0.40;65.65
48898;DHT22;34713;50.038;20.000;2022-11-20T07:24:46;-0.36;65.73
48898;DHT22;34713;50.038;20.000;2022-11-20T07:27:11;-0.35;65.74
48898;DHT22;34713;50.038;20.000;2022-11-20T07:29:37;-0.30;65.79
48898;DHT22;34713;50.038;20.000;2022-11-20T07:32:04;-0.30;65.67
48898;DHT22;34713;50.038;20.000;2022-11-20T07:34:30;-0.32;65.68
48898;DHT22;34713;50.038;20.000;2022-11-20T07:36:55;-0.30;65.79
48898;DHT22;34713;50.038;20.000;2022-11-20T07:39:21;-0.26;65.81
48898;DHT22;34713;50.038;20.000;2022-11-20T07:41:47;-0.26;65.75
48898;DHT22;34713;50.038;20.000;2022-11-20T07:44:12;-0.22;65.72
48898;DHT22;34713;50.038;20.000;2022-11-20T07:46:38;-0.18;65.72
48898;DHT22;34713;50.038;20.000;2022-11-20T07:49:04;-0.19;65.61
48898;DHT22;34713;50.038;20.000;2022-11-20T07:51:29;-0.23;65.60
48898;DHT22;34713;50.038;20.000;2022-11-20T07:53:55;-0.23;65.63
48898;DHT22;34713;50.038;20.000;2022-11-20T07:56:21;-0.22;65.66
48898;DHT22;34713;50.038;20.000;2022-11-20T07:58:47;-0.26;65.62
48898;DHT22;34713;50.038;20.000;2022-11-20T08:01:12;-0.23;65.62
48898;DHT22;34713;50.038;20.000;2022-11-20T08:03:38;-0.27;65.60
48898;DHT22;34713;50.038;20.000;2022-11-20T08:06:04;-0.22;65.59
48898;DHT22;34713;50.038;20.000;2022-11-20T08:08:30;-0.27;65.64
48898;DHT22;34713;50.038;20.000;2022-11-20T08:10:57;-0.26;65.72
48898;DHT22;34713;50.038;20.000;2022-11-20T08:13:41;-0.29;65.70
48898;DHT22;34713;50.038;20.000;2022-11-20T08:16:26;-0.26;65.73
48898;DHT22;34713;50.038;20.000;2022-11-20T08:18:51;-0.22;65.74
48898;DHT22;34713;50.038;20.000;2022-11-20T08:21:17;-0.19;65.75
48898;DHT22;34713;50.038;20.000;2022-11-20T08:23:43;-0.18;65.69
48898;DHT22;34713;50.038;20.000;2022-11-20T08:26:09;-0.18;65.63
48898;DHT22;34713;50.038;20.000;2022-11-20T08:28:34;-0.21;65.65
48898;DHT22;34713;50.038;20.000;2022-11-20T08:31:02;-0.15;65.61
48898;DHT22;34713;50.038;20.000;2022-11-20T08:33:28;-0.14;65.58
48898;DHT22;34713;50.038;20.000;2022-11-20T08:36:00;-0.14;65.60
48898;DHT22;34713;50.038;20.000;2022-11-20T08:38:26;-0.12;65.61
48898;DHT22;34713;50.038;20.000;2022-11-20T08:41:02;-0.09;65.67
48898;DHT22;34713;50.038;20.000;2022-11-20T08:43:46;-0.05;65.62
48898;DHT22;34713;50.038;20.000;2022-11-20T08:46:12;-0.05;65.63
48898;DHT22;34713;50.038;20.000;2022-11-20T08:48:38;-0.09;65.74
48898;DHT22;34713;50.038;20.000;2022-11-20T08:51:04;-0.06;65.89
48898;DHT22;34713;50.038;20.000;2022-11-20T08:53:30;0.01;65.98
48898;DHT22;34713;50.038;20.000;2022-11-20T08:55:59;0.08;66.03
48898;DHT22;34713;50.038;20.000;2022-11-20T08:58:25;0.13;65.96
48898;DHT22;34713;50.038;20.000;2022-11-20T09:00:52;0.22;65.95
48898;DHT22;34713;50.038;20.000;2022-11-20T09:03:18;0.28;65.92
48898;DHT22;34713;50.038;20.000;2022-11-20T09:05:44;0.34;65.87
48898;DHT22;34713;50.038;20.000;2022-11-20T09:08:10;0.42;65.87
48898;DHT22;34713;50.038;20.000;2022-11-20T09:10:36;0.53;65.83
48898;DHT22;34713;50.038;20.000;2022-11-20T09:13:02;0.57;65.75
48898;DHT22;34713;50.038;20.000;2022-11-20T09:15:28;0.64;65.69
48898;DHT22;34713;50.038;20.000;2022-11-20T09:18:02;0.70;65.65
48898;DHT22;34713;50.038;20.000;2022-11-20T09:20:30;0.78;65.56
48898;DHT22;34713;50.038;20.000;2022-11-20T09:22:57;0.81;65.43
48898;DHT22;34713;50.038;20.000;2022-11-20T09:25:23;0.84;65.47
48898;DHT22;34713;50.038;20.000;2022-11-20T09:27:55;0.88;65.49
48898;DHT22;34713;50.038;20.000;2022-11-20T09:30:21;0.98;65.43
48898;DHT22;34713;50.038;20.000;2022-11-20T09:32:47;1.01;65.37
48898;DHT22;34713;50.038;20.000;2022-11-20T09:35:12;1.08;65.34
48898;DHT22;34713;50.038;20.000;2022-11-20T09:37:40;1.11;65.26
48898;DHT22;34713;50.038;20.000;2022-11-20T09:40:16;1.13;65.27
48898;DHT22;34713;50.038;20.000;2022-11-20T09:42:57;1.21;65.27
48898;DHT22;34713;50.038;20.000;2022-11-20T09:45:48;1.25;65.25
48898;DHT22;34713;50.038;20.000;2022-11-20T09:48:48;1.33;65.24
48898;DHT22;34713;50.038;20.000;2022-11-20T09:51:42;1.43;65.24
48898;DHT22;34713;50.038;20.000;2022-11-20T09:54:29;1.49;65.16
48898;DHT22;34713;50.038;20.000;2022-11-20T09:57:02;1.57;65.05
48898;DHT22;34713;50.038;20.000;2022-11-20T10:05:18;1.78;64.80
48898;DHT22;34713;50.038;20.000;2022-11-20T10:10:49;1.90;64.65
48898;DHT22;34713;50.038;20.000;2022-11-20T10:13:42;1.97;64.54
48898;DHT22;34713;50.038;20.000;2022-11-20T10:16:37;2.02;64.46
48898;DHT22;34713;50.038;20.000;2022-11-20T10:24:55;2.12;64.26
48898;DHT22;34713;50.038;20.000;2022-11-20T10:30:20;2.23;64.32
48898;DHT22;34713;50.038;20.000;2022-11-20T10:33:04;2.31;64.27
48898;DHT22;34713;50.038;20.000;2022-11-20T10:35:55;2.39;64.32
48898;DHT22;34713;50.038;20.000;2022-11-20T10:38:35;2.48;64.31
48898;DHT22;34713;50.038;20.000;2022-11-20T10:41:01;2.57;64.28
48898;DHT22;34713;50.038;20.000;2022-11-20T10:43:48;2.67;64.26
48898;DHT22;34713;50.038;20.000;2022-11-20T10:46:18;2.76;64.20
48898;DHT22;34713;50.038;20.000;2022-11-20T10:48:45;2.83;64.12
48898;DHT22;34713;50.038;20.000;2022-11-20T10:51:36;2.90;64.03
48898;DHT22;34713;50.038;20.000;2022-11-20T10:57:18;3.01;63.77
48898;DHT22;34713;50.038;20.000;2022-11-20T11:02:45;3.16;63.59
48898;DHT22;34713;50.038;20.000;2022-11-20T11:05:27;3.19;63.53
48898;DHT22;34713;50.038;20.000;2022-11-20T11:07:55;3.25;63.44
48898;DHT22;34713;50.038;20.000;2022-11-20T11:13:07;3.31;63.26
48898;DHT22;34713;50.038;20.000;2022-11-20T11:15:40;3.35;63.20
48898;DHT22;34713;50.038;20.000;2022-11-20T11:18:10;3.36;63.16
48898;DHT22;34713;50.038;20.000;2022-11-20T11:20:37;3.41;63.11
48898;DHT22;34713;50.038;20.000;2022-11-20T11:23:03;3.43;63.08
48898;DHT22;34713;50.038;20.000;2022-11-20T11:25:35;3.52;63.14
48898;DHT22;34713;50.038;20.000;2022-11-20T11:28:20;3.56;63.05
48898;DHT22;34713;50.038;20.000;2022-11-20T11:30:46;3.60;62.96
48898;DHT22;34713;50.038;20.000;2022-11-20T11:33:29;3.66;62.81
48898;DHT22;34713;50.038;20.000;2022-11-20T11:35:58;3.71;62.70
48898;DHT22;34713;50.038;20.000;2022-11-20T11:38:38;3.76;62.59
48898;DHT22;34713;50.038;20.000;2022-11-20T11:41:18;3.77;62.62
48898;DHT22;34713;50.038;20.000;2022-11-20T11:44:43;3.81;62.47
48898;DHT22;34713;50.038;20.000;2022-11-20T11:46:54;3.84;62.46
48898;DHT22;34713;50.038;20.000;2022-11-20T11:49:21;3.84;62.40
48898;DHT22;34713;50.038;20.000;2022-11-20T11:52:17;3.88;62.43
48898;DHT22;34713;50.038;20.000;2022-11-20T11:54:55;3.97;62.45
48898;DHT22;34713;50.038;20.000;2022-11-20T11:57:52;4.01;62.42
48898;DHT22;34713;50.038;20.000;2022-11-20T12:00:21;4.05;62.38
48898;DHT22;34713;50.038;20.000;2022-11-20T12:02:56;4.09;62.59
48898;DHT22;34713;50.038;20.000;2022-11-20T12:05:29;4.15;62.45
48898;DHT22;34713;50.038;20.000;2022-11-20T12:08:35;4.21;62.38
48898;DHT22;34713;50.038;20.000;2022-11-20T12:16:51;4.30;62.30
48898;DHT22;34713;50.038;20.000;2022-11-20T12:19:18;4.36;62.20
48898;DHT22;34713;50.038;20.000;2022-11-20T12:21:55;4.35;62.13
48898;DHT22;34713;50.038;20.000;2022-11-20T12:30:46;4.43;62.04
48898;DHT22;34713;50.038;20.000;2022-11-20T12:39:07;4.46;61.93
48898;DHT22;34713;50.038;20.000;2022-11-20T12:42:09;4.48;61.92
48898;DHT22;34713;50.038;20.000;2022-11-20T12:48:25;4.45;61.85
48898;DHT22;34713;50.038;20.000;2022-11-20T12:51:24;4.43;61.72
48898;DHT22;34713;50.038;20.000;2022-11-20T13:05:41;4.42;61.91
48898;DHT22;34713;50.038;20.000;2022-11-20T13:08:11;4.46;61.90
48898;DHT22;34713;50.038;20.000;2022-11-20T13:13:31;4.43;61.93
48898;DHT22;34713;50.038;20.000;2022-11-20T13:16:05;4.45;61.90
48898;DHT22;34713;50.038;20.000;2022-11-20T13:18:36;4.42;61.72
48898;DHT22;34713;50.038;20.000;2022-11-20T13:23:42;4.39;61.98
48898;DHT22;34713;50.038;20.000;2022-11-20T13:26:19;4.35;62.03
48898;DHT22;34713;50.038;20.000;2022-11-20T13:28:47;4.33;62.09
48898;DHT22;34713;50.038;20.000;2022-11-20T13:31:32;4.35;62.09
48898;DHT22;34713;50.038;20.000;2022-11-20T13:34:00;4.29;61.99
48898;DHT22;34713;50.038;20.000;2022-11-20T13:36:28;4.28;62.27
48898;DHT22;34713;50.038;20.000;2022-11-20T13:38:56;4.28;62.18
48898;DHT22;34713;50.038;20.000;2022-11-20T13:41:35;4.24;62.21
48898;DHT22;34713;50.038;20.000;2022-11-20T13:44:22;4.25;62.26
48898;DHT22;34713;50.038;20.000;2022-11-20T13:46:46;4.24;62.35
48898;DHT22;34713;50.038;20.000;2022-11-20T13:51:57;4.14;62.44
48898;DHT22;34713;50.038;20.000;2022-11-20T13:54:52;4.07;62.53
48898;DHT22;34713;50.038;20.000;2022-11-20T14:00:21;4.00;62.62
48898;DHT22;34713;50.038;20.000;2022-11-20T14:02:57;3.96;62.71
48898;DHT22;34713;50.038;20.000;2022-11-20T14:05:22;3.88;62.78
48898;DHT22;34713;50.038;20.000;2022-11-20T14:07:50;3.86;62.85
48898;DHT22;34713;50.038;20.000;2022-11-20T14:10:28;3.81;62.93
48898;DHT22;34713;50.038;20.000;2022-11-20T14:12:51;3.80;62.94
48898;DHT22;34713;50.038;20.000;2022-11-20T14:15:31;3.84;63.01
48898;DHT22;34713;50.038;20.000;2022-11-20T14:17:58;3.83;63.08
48898;DHT22;34713;50.038;20.000;2022-11-20T14:20:29;3.83;63.17
48898;DHT22;34713;50.038;20.000;2022-11-20T14:22:57;3.84;63.19
48898;DHT22;34713;50.038;20.000;2022-11-20T14:25:25;3.83;63.20
48898;DHT22;34713;50.038;20.000;2022-11-20T14:28:01;3.83;63.20
48898;DHT22;34713;50.038;20.000;2022-11-20T14:30:38;3.83;63.21
48898;DHT22;34713;50.038;20.000;2022-11-20T14:33:04;3.77;63.17
48898;DHT22;34713;50.038;20.000;2022-11-20T14:35:40;3.76;63.18
48898;DHT22;34713;50.038;20.000;2022-11-20T14:38:09;3.70;63.22
48898;DHT22;34713;50.038;20.000;2022-11-20T14:40:36;3.70;63.32
48898;DHT22;34713;50.038;20.000;2022-11-20T14:43:23;3.66;63.30
48898;DHT22;34713;50.038;20.000;2022-11-20T14:48:46;3.59;63.37
48898;DHT22;34713;50.038;20.000;2022-11-20T14:51:34;3.50;63.43
48898;DHT22;34713;50.038;20.000;2022-11-20T14:56:55;3.38;63.76
48898;DHT22;34713;50.038;20.000;2022-11-20T14:59:31;3.33;63.78
48898;DHT22;34713;50.038;20.000;2022-11-20T15:02:05;3.28;63.88
48898;DHT22;34713;50.038;20.000;2022-11-20T15:04:31;3.19;63.92
48898;DHT22;34713;50.038;20.000;2022-11-20T15:07:00;3.14;64.01
48898;DHT22;34713;50.038;20.000;2022-11-20T15:09:26;3.07;64.13
48898;DHT22;34713;50.038;20.000;2022-11-20T15:11:56;3.05;64.17
48898;DHT22;34713;50.038;20.000;2022-11-20T15:14:23;3.02;64.23
48898;DHT22;34713;50.038;20.000;2022-11-20T15:16:51;3.00;64.29
48898;DHT22;34713;50.038;20.000;2022-11-20T15:19:21;2.97;64.37
48898;DHT22;34713;50.038;20.000;2022-11-20T15:21:47;2.92;64.44
48898;DHT22;34713;50.038;20.000;2022-11-20T15:24:13;2.91;64.50
48898;DHT22;34713;50.038;20.000;2022-11-20T15:26:39;2.91;64.54
48898;DHT22;34713;50.038;20.000;2022-11-20T15:29:12;2.90;64.52
48898;DHT22;34713;50.038;20.000;2022-11-20T15:31:39;2.88;64.55
48898;DHT22;34713;50.038;20.000;2022-11-20T15:34:15;2.84;64.60
48898;DHT22;34713;50.038;20.000;2022-11-20T15:36:42;2.81;64.63
48898;DHT22;34713;50.038;20.000;2022-11-20T15:39:08;2.80;64.64
48898;DHT22;34713;50.038;20.000;2022-11-20T15:41:35;2.80;64.68
48898;DHT22;34713;50.038;20.000;2022-11-20T15:44:02;2.79;64.70
48898;DHT22;34713;50.038;20.000;2022-11-20T15:46:31;2.79;64.77
48898;DHT22;34713;50.038;20.000;2022-11-20T15:48:59;2.77;64.79
48898;DHT22;34713;50.038;20.000;2022-11-20T15:51:38;2.73;64.84
48898;DHT22;34713;50.038;20.000;2022-11-20T15:54:18;2.74;64.90
48898;DHT22;34713;50.038;20.000;2022-11-20T15:56:43;2.74;64.98
48898;DHT22;34713;50.038;20.000;2022-11-20T15:59:09;2.73;65.03
48898;DHT22;34713;50.038;20.000;2022-11-20T16:01:35;2.71;65.04
48898;DHT22;34713;50.038;20.000;2022-11-20T16:04:01;2.71;65.09
48898;DHT22;34713;50.038;20.000;2022-11-20T16:06:27;2.71;65.12
48898;DHT22;34713;50.038;20.000;2022-11-20T16:08:52;2.70;65.10
48898;DHT22;34713;50.038;20.000;2022-11-20T16:11:18;2.71;65.17
48898;DHT22;34713;50.038;20.000;2022-11-20T16:13:44;2.70;65.17
48898;DHT22;34713;50.038;20.000;2022-11-20T16:16:35;2.73;65.19
48898;DHT22;34713;50.038;20.000;2022-11-20T16:19:02;2.71;65.20
48898;DHT22;34713;50.038;20.000;2022-11-20T16:21:28;2.77;65.27
48898;DHT22;34713;50.038;20.000;2022-11-20T16:23:58;2.80;65.22
48898;DHT22;34713;50.038;20.000;2022-11-20T16:26:24;2.80;65.19
48898;DHT22;34713;50.038;20.000;2022-11-20T16:28:50;2.85;65.20
48898;DHT22;34713;50.038;20.000;2022-11-20T16:31:18;2.87;65.20
48898;DHT22;34713;50.038;20.000;2022-11-20T16:33:49;2.87;65.22
48898;DHT22;34713;50.038;20.000;2022-11-20T16:36:16;2.87;65.24
48898;DHT22;34713;50.038;20.000;2022-11-20T16:38:42;2.87;65.23
48898;DHT22;34713;50.038;20.000;2022-11-20T16:41:09;2.90;65.29
48898;DHT22;34713;50.038;20.000;2022-11-20T16:43:36;2.90;65.27
48898;DHT22;34713;50.038;20.000;2022-11-20T16:46:03;2.91;65.27
48898;DHT22;34713;50.038;20.000;2022-11-20T16:48:29;2.94;65.28
48898;DHT22;34713;50.038;20.000;2022-11-20T16:50:55;2.94;65.30
48898;DHT22;34713;50.038;20.000;2022-11-20T16:53:21;2.95;65.32
48898;DHT22;34713;50.038;20.000;2022-11-20T16:55:48;2.98;65.31
48898;DHT22;34713;50.038;20.000;2022-11-20T16:58:14;2.95;65.30
48898;DHT22;34713;50.038;20.000;2022-11-20T17:00:40;2.98;65.27
48898;DHT22;34713;50.038;20.000;2022-11-20T17:03:06;3.00;65.33
48898;DHT22;34713;50.038;20.000;2022-11-20T17:05:33;3.01;65.31
48898;DHT22;34713;50.038;20.000;2022-11-20T17:08:02;3.00;65.30
48898;DHT22;34713;50.038;20.000;2022-11-20T17:10:28;3.05;65.31
48898;DHT22;34713;50.038;20.000;2022-11-20T17:12:54;3.01;65.29